sensor_id;sensor_type;location;lat;lon;timestamp;P1;durP1;ratioP1;P2;durP2;ratioP2
51866;SDS011;52862;52.504;13.480;2023-02-19T00:01:32;7.27;;;2.53;;
51866;SDS011;52862;52.504;13.480;2023-02-19T00:04:02;11.27;;;2.60;;
51866;SDS011;52862;52.504;13.480;2023-02-19T00:06:31;7.73;;;2.90;;
51866;SDS011;52862;52.504;13.480;2023-02-19T00:08:59;8.70;;;3.77;;
51866;SDS011;52862;52.504;13.480;2023-02-19T00:11:27;9.60;;;2.77;;
51866;SDS011;52862;52.504;13.480;2023-02-19T00:13:55;6.03;;;2.50;;
51866;SDS011;52862;52.504;13.480;2023-02-19T00:16:23;8.83;;;2.90;;
51866;SDS011;52862;52.504;13.480;2023-02-19T00:18:52;7.27;;;2.70;;
51866;SDS011;52862;52.504;13.480;2023-02-19T00:21:20;5.33;;;2.37;;
51866;SDS011;52862;52.504;13.480;2023-02-19T00:23:47;13.90;;;2.93;;
51866;SDS011;52862;52.504;13.480;2023-02-19T00:26:15;8.37;;;3.00;;
51866;SDS011;52862;52.504;13.480;2023-02-19T00:28:44;8.63;;;2.93;;
51866;SDS011;52862;52.504;13.480;2023-02-19T00:31:15;7.67;;;3.33;;
51866;SDS011;52862;52.504;13.480;2023-02-19T00:33:49;7.13;;;2.73;;
51866;SDS011;52862;52.504;13.480;2023-02-19T00:36:17;8.73;;;3.00;;
51866;SDS011;52862;52.504;13.480;2023-02-19T00:38:45;12.37;;;2.93;;
51866;SDS011;52862;52.504;13.480;2023-02-19T00:41:13;9.10;;;2.97;;
51866;SDS011;52862;52.504;13.480;2023-02-19T00:43:47;7.70;;;2.53;;
51866;SDS011;52862;52.504;13.480;2023-02-19T00:46:16;6.07;;;2.80;;
51866;SDS011;52862;52.504;13.480;2023-02-19T00:48:43;8.37;;;2.90;;
51866;SDS011;52862;52.504;13.480;2023-02-19T00:51:11;9.10;;;3.17;;
51866;SDS011;52862;52.504;13.480;2023-02-19T00:53:40;4.63;;;2.90;;
51866;SDS011;52862;52.504;13.480;2023-02-19T00:56:07;8.77;;;3.30;;
51866;SDS011;52862;52.504;13.480;2023-02-19T00:58:34;8.50;;;3.57;;
51866;SDS011;52862;52.504;13.480;2023-02-19T01:01:01;6.17;;;3.43;;
51866;SDS011;52862;52.504;13.480;2023-02-19T01:03:28;16.57;;;3.70;;
51866;SDS011;52862;52.504;13.480;2023-02-19T01:05:55;7.43;;;3.93;;
51866;SDS011;52862;52.504;13.480;2023-02-19T01:08:21;8.67;;;3.60;;
51866;SDS011;52862;52.504;13.480;2023-02-19T01:10:50;9.17;;;3.70;;
51866;SDS011;52862;52.504;13.480;2023-02-19T01:13:17;6.87;;;3.80;;
51866;SDS011;52862;52.504;13.480;2023-02-19T01:15:44;8.93;;;3.70;;
51866;SDS011;52862;52.504;13.480;2023-02-19T01:18:11;6.90;;;3.50;;
51866;SDS011;52862;52.504;13.480;2023-02-19T01:20:38;8.20;;;4.33;;
51866;SDS011;52862;52.504;13.480;2023-02-19T01:23:06;9.00;;;3.83;;
51866;SDS011;52862;52.504;13.480;2023-02-19T01:25:33;7.67;;;4.20;;
51866;SDS011;52862;52.504;13.480;2023-02-19T01:28:01;15.33;;;5.07;;
51866;SDS011;52862;52.504;13.480;2023-02-19T01:30:28;18.43;;;6.37;;
51866;SDS011;52862;52.504;13.480;2023-02-19T01:32:54;13.87;;;5.13;;
51866;SDS011;52862;52.504;13.480;2023-02-19T01:35:21;12.87;;;4.97;;
51866;SDS011;52862;52.504;13.480;2023-02-19T01:37:48;11.83;;;5.20;;
51866;SDS011;52862;52.504;13.480;2023-02-19T01:40:14;10.60;;;5.30;;
51866;SDS011;52862;52.504;13.480;2023-02-19T01:42:41;8.13;;;4.37;;
51866;SDS011;52862;52.504;13.480;2023-02-19T01:45:21;9.97;;;4.57;;
51866;SDS011;52862;52.504;13.480;2023-02-19T01:48:03;7.77;;;3.47;;
51866;SDS011;52862;52.504;13.480;2023-02-19T01:50:35;10.17;;;3.43;;
51866;SDS011;52862;52.504;13.480;2023-02-19T01:53:06;11.17;;;4.43;;
51866;SDS011;52862;52.504;13.480;2023-02-19T01:55:35;11.77;;;4.43;;
51866;SDS011;52862;52.504;13.480;2023-02-19T01:58:03;12.23;;;5.23;;
51866;SDS011;52862;52.504;13.480;2023-02-19T02:00:32;11.43;;;4.27;;
51866;SDS011;52862;52.504;13.480;2023-02-19T02:02:59;11.07;;;5.20;;
51866;SDS011;52862;52.504;13.480;2023-02-19T02:08:20;9.10;;;4.07;;
51866;SDS011;52862;52.504;13.480;2023-02-19T02:11:06;6.40;;;3.80;;
51866;SDS011;52862;52.504;13.480;2023-02-19T02:13:34;8.33;;;4.50;;
51866;SDS011;52862;52.504;13.480;2023-02-19T02:16:07;12.30;;;4.50;;
51866;SDS011;52862;52.504;13.480;2023-02-19T02:18:45;9.13;;;4.53;;
51866;SDS011;52862;52.504;13.480;2023-02-19T02:21:32;6.70;;;4.30;;
51866;SDS011;52862;52.504;13.480;2023-02-19T02:24:17;11.90;;;5.43;;
51866;SDS011;52862;52.504;13.480;2023-02-19T02:27:03;18.07;;;6.33;;
51866;SDS011;52862;52.504;13.480;2023-02-19T02:32:49;14.87;;;5.70;;
51866;SDS011;52862;52.504;13.480;2023-02-19T02:35:21;16.83;;;6.53;;
51866;SDS011;52862;52.504;13.480;2023-02-19T02:37:51;14.37;;;6.00;;
51866;SDS011;52862;52.504;13.480;2023-02-19T02:40:21;13.27;;;6.57;;
51866;SDS011;52862;52.504;13.480;2023-02-19T02:42:49;20.50;;;7.20;;
51866;SDS011;52862;52.504;13.480;2023-02-19T02:45:24;18.87;;;6.63;;
51866;SDS011;52862;52.504;13.480;2023-02-19T02:48:10;19.60;;;6.77;;
51866;SDS011;52862;52.504;13.480;2023-02-19T02:50:45;10.43;;;5.77;;
51866;SDS011;52862;52.504;13.480;2023-02-19T02:53:17;20.27;;;6.97;;
51866;SDS011;52862;52.504;13.480;2023-02-19T02:56:05;21.03;;;5.77;;
51866;SDS011;52862;52.504;13.480;2023-02-19T02:58:32;17.23;;;5.43;;
51866;SDS011;52862;52.504;13.480;2023-02-19T03:01:01;17.03;;;5.27;;
51866;SDS011;52862;52.504;13.480;2023-02-19T03:03:52;15.67;;;4.87;;
51866;SDS011;52862;52.504;13.480;2023-02-19T03:06:22;12.30;;;5.03;;
51866;SDS011;52862;52.504;13.480;2023-02-19T03:08:54;18.73;;;5.40;;
51866;SDS011;52862;52.504;13.480;2023-02-19T03:11:24;11.70;;;4.87;;
51866;SDS011;52862;52.504;13.480;2023-02-19T03:14:10;12.33;;;5.13;;
51866;SDS011;52862;52.504;13.480;2023-02-19T03:17:00;16.00;;;5.53;;
51866;SDS011;52862;52.504;13.480;2023-02-19T03:19:49;15.00;;;6.03;;
51866;SDS011;52862;52.504;13.480;2023-02-19T03:22:21;10.07;;;4.73;;
51866;SDS011;52862;52.504;13.480;2023-02-19T03:24:53;19.37;;;5.40;;
51866;SDS011;52862;52.504;13.480;2023-02-19T03:27:42;13.17;;;6.37;;
51866;SDS011;52862;52.504;13.480;2023-02-19T03:30:10;12.13;;;5.60;;
51866;SDS011;52862;52.504;13.480;2023-02-19T03:32:42;17.40;;;6.13;;
51866;SDS011;52862;52.504;13.480;2023-02-19T03:35:13;20.23;;;5.80;;
51866;SDS011;52862;52.504;13.480;2023-02-19T03:37:44;19.33;;;6.73;;
51866;SDS011;52862;52.504;13.480;2023-02-19T03:40:15;22.30;;;6.00;;
51866;SDS011;52862;52.504;13.480;2023-02-19T03:42:42;23.10;;;6.93;;
51866;SDS011;52862;52.504;13.480;2023-02-19T03:45:19;25.37;;;6.30;;
51866;SDS011;52862;52.504;13.480;2023-02-19T03:47:59;16.43;;;5.87;;
51866;SDS011;52862;52.504;13.480;2023-02-19T03:50:34;14.70;;;4.83;;
51866;SDS011;52862;52.504;13.480;2023-02-19T03:53:09;12.57;;;4.67;;
51866;SDS011;52862;52.504;13.480;2023-02-19T03:55:43;12.60;;;4.37;;
51866;SDS011;52862;52.504;13.480;2023-02-19T03:58:19;9.30;;;3.23;;
51866;SDS011;52862;52.504;13.480;2023-02-19T04:00:54;12.13;;;3.70;;
51866;SDS011;52862;52.504;13.480;2023-02-19T04:03:29;28.17;;;4.90;;
51866;SDS011;52862;52.504;13.480;2023-02-19T04:06:00;9.97;;;3.83;;
51866;SDS011;52862;52.504;13.480;2023-02-19T04:08:30;16.17;;;4.10;;
51866;SDS011;52862;52.504;13.480;2023-02-19T04:11:00;14.43;;;4.10;;
51866;SDS011;52862;52.504;13.480;2023-02-19T04:13:28;10.87;;;3.80;;
51866;SDS011;52862;52.504;13.480;2023-02-19T04:15:59;11.97;;;4.00;;
51866;SDS011;52862;52.504;13.480;2023-02-19T04:18:30;14.77;;;4.00;;
51866;SDS011;52862;52.504;13.480;2023-02-19T04:20:59;20.43;;;5.00;;
51866;SDS011;52862;52.504;13.480;2023-02-19T04:23:29;19.90;;;4.10;;
51866;SDS011;52862;52.504;13.480;2023-02-19T04:26:02;18.10;;;3.47;;
51866;SDS011;52862;52.504;13.480;2023-02-19T04:28:29;14.50;;;3.17;;
51866;SDS011;52862;52.504;13.480;2023-02-19T04:30:56;25.70;;;4.87;;
51866;SDS011;52862;52.504;13.480;2023-02-19T04:33:23;13.13;;;4.70;;
51866;SDS011;52862;52.504;13.480;2023-02-19T04:35:51;13.63;;;4.80;;
51866;SDS011;52862;52.504;13.480;2023-02-19T04:38:17;11.13;;;4.47;;
51866;SDS011;52862;52.504;13.480;2023-02-19T04:40:44;17.90;;;5.03;;
51866;SDS011;52862;52.504;13.480;2023-02-19T04:43:11;12.23;;;4.17;;
51866;SDS011;52862;52.504;13.480;2023-02-19T04:45:38;10.83;;;4.13;;
51866;SDS011;52862;52.504;13.480;2023-02-19T04:48:05;29.80;;;5.33;;
51866;SDS011;52862;52.504;13.480;2023-02-19T04:50:32;10.27;;;3.40;;
51866;SDS011;52862;52.504;13.480;2023-02-19T04:52:59;14.97;;;3.67;;
51866;SDS011;52862;52.504;13.480;2023-02-19T04:55:26;14.20;;;3.73;;
51866;SDS011;52862;52.504;13.480;2023-02-19T04:57:53;10.20;;;3.57;;
51866;SDS011;52862;52.504;13.480;2023-02-19T05:00:20;17.37;;;3.27;;
51866;SDS011;52862;52.504;13.480;2023-02-19T05:02:47;13.87;;;3.47;;
51866;SDS011;52862;52.504;13.480;2023-02-19T05:05:13;8.13;;;3.13;;
51866;SDS011;52862;52.504;13.480;2023-02-19T05:07:40;8.60;;;3.50;;
51866;SDS011;52862;52.504;13.480;2023-02-19T05:10:08;11.33;;;3.70;;
51866;SDS011;52862;52.504;13.480;2023-02-19T05:12:35;10.83;;;3.63;;
51866;SDS011;52862;52.504;13.480;2023-02-19T05:15:01;9.30;;;3.43;;
51866;SDS011;52862;52.504;13.480;2023-02-19T05:17:28;16.07;;;3.30;;
51866;SDS011;52862;52.504;13.480;2023-02-19T05:19:58;8.73;;;3.63;;
51866;SDS011;52862;52.504;13.480;2023-02-19T05:22:24;11.20;;;3.40;;
51866;SDS011;52862;52.504;13.480;2023-02-19T05:24:53;10.47;;;4.10;;
51866;SDS011;52862;52.504;13.480;2023-02-19T05:27:20;15.13;;;3.33;;
51866;SDS011;52862;52.504;13.480;2023-02-19T05:29:47;9.67;;;3.60;;
51866;SDS011;52862;52.504;13.480;2023-02-19T05:32:14;6.60;;;3.20;;
51866;SDS011;52862;52.504;13.480;2023-02-19T05:34:41;9.17;;;3.97;;
51866;SDS011;52862;52.504;13.480;2023-02-19T05:37:08;7.43;;;3.57;;
51866;SDS011;52862;52.504;13.480;2023-02-19T05:39:35;15.17;;;3.83;;
51866;SDS011;52862;52.504;13.480;2023-02-19T05:42:01;14.30;;;4.00;;
51866;SDS011;52862;52.504;13.480;2023-02-19T05:44:29;12.97;;;3.67;;
51866;SDS011;52862;52.504;13.480;2023-02-19T05:46:55;11.97;;;3.67;;
51866;SDS011;52862;52.504;13.480;2023-02-19T05:49:22;21.17;;;4.17;;
51866;SDS011;52862;52.504;13.480;2023-02-19T05:51:49;12.80;;;4.13;;
51866;SDS011;52862;52.504;13.480;2023-02-19T05:54:16;13.63;;;4.47;;
51866;SDS011;52862;52.504;13.480;2023-02-19T05:56:43;12.20;;;3.47;;
51866;SDS011;52862;52.504;13.480;2023-02-19T05:59:13;15.20;;;3.93;;
51866;SDS011;52862;52.504;13.480;2023-02-19T06:01:43;17.67;;;4.60;;
51866;SDS011;52862;52.504;13.480;2023-02-19T06:04:10;11.40;;;3.97;;
51866;SDS011;52862;52.504;13.480;2023-02-19T06:06:38;14.77;;;3.67;;
51866;SDS011;52862;52.504;13.480;2023-02-19T06:09:06;8.43;;;3.73;;
51866;SDS011;52862;52.504;13.480;2023-02-19T06:11:33;17.57;;;3.60;;
51866;SDS011;52862;52.504;13.480;2023-02-19T06:13:59;9.87;;;3.70;;
51866;SDS011;52862;52.504;13.480;2023-02-19T06:16:27;17.03;;;3.73;;
51866;SDS011;52862;52.504;13.480;2023-02-19T06:18:54;9.27;;;3.97;;
51866;SDS011;52862;52.504;13.480;2023-02-19T06:21:21;12.43;;;3.90;;
51866;SDS011;52862;52.504;13.480;2023-02-19T06:23:48;15.63;;;3.63;;
51866;SDS011;52862;52.504;13.480;2023-02-19T06:26:16;8.77;;;3.67;;
51866;SDS011;52862;52.504;13.480;2023-02-19T06:28:45;18.47;;;3.63;;
51866;SDS011;52862;52.504;13.480;2023-02-19T06:31:13;9.07;;;3.13;;
51866;SDS011;52862;52.504;13.480;2023-02-19T06:33:40;12.07;;;3.80;;
51866;SDS011;52862;52.504;13.480;2023-02-19T06:36:10;16.97;;;3.03;;
51866;SDS011;52862;52.504;13.480;2023-02-19T06:38:37;20.87;;;3.53;;
51866;SDS011;52862;52.504;13.480;2023-02-19T06:41:04;11.37;;;3.00;;
51866;SDS011;52862;52.504;13.480;2023-02-19T06:43:32;8.13;;;2.60;;
51866;SDS011;52862;52.504;13.480;2023-02-19T06:46:00;13.07;;;3.63;;
51866;SDS011;52862;52.504;13.480;2023-02-19T06:48:28;11.60;;;2.47;;
51866;SDS011;52862;52.504;13.480;2023-02-19T06:50:56;11.27;;;3.03;;
51866;SDS011;52862;52.504;13.480;2023-02-19T06:53:24;12.67;;;3.27;;
51866;SDS011;52862;52.504;13.480;2023-02-19T06:56:00;11.43;;;2.30;;
51866;SDS011;52862;52.504;13.480;2023-02-19T06:58:29;7.00;;;2.27;;
51866;SDS011;52862;52.504;13.480;2023-02-19T07:00:57;15.57;;;3.13;;
51866;SDS011;52862;52.504;13.480;2023-02-19T07:03:24;14.80;;;2.73;;
51866;SDS011;52862;52.504;13.480;2023-02-19T07:05:51;7.70;;;2.10;;
51866;SDS011;52862;52.504;13.480;2023-02-19T07:08:18;12.63;;;2.83;;
51866;SDS011;52862;52.504;13.480;2023-02-19T07:10:52;21.40;;;3.50;;
51866;SDS011;52862;52.504;13.480;2023-02-19T07:13:20;12.50;;;3.00;;
51866;SDS011;52862;52.504;13.480;2023-02-19T07:15:47;12.23;;;2.60;;
51866;SDS011;52862;52.504;13.480;2023-02-19T07:18:15;16.20;;;2.63;;
51866;SDS011;52862;52.504;13.480;2023-02-19T07:20:42;11.20;;;2.93;;
51866;SDS011;52862;52.504;13.480;2023-02-19T07:23:09;12.13;;;2.73;;
51866;SDS011;52862;52.504;13.480;2023-02-19T07:25:36;11.43;;;2.90;;
51866;SDS011;52862;52.504;13.480;2023-02-19T07:28:04;14.43;;;3.10;;
51866;SDS011;52862;52.504;13.480;2023-02-19T07:30:31;16.23;;;2.93;;
51866;SDS011;52862;52.504;13.480;2023-02-19T07:32:58;14.57;;;3.10;;
51866;SDS011;52862;52.504;13.480;2023-02-19T07:35:24;14.80;;;3.17;;
51866;SDS011;52862;52.504;13.480;2023-02-19T07:37:51;13.07;;;2.50;;
51866;SDS011;52862;52.504;13.480;2023-02-19T07:40:18;9.33;;;2.60;;
51866;SDS011;52862;52.504;13.480;2023-02-19T07:42:45;9.23;;;2.20;;
51866;SDS011;52862;52.504;13.480;2023-02-19T07:45:12;13.80;;;2.57;;
51866;SDS011;52862;52.504;13.480;2023-02-19T07:47:40;16.17;;;2.77;;
51866;SDS011;52862;52.504;13.480;2023-02-19T07:50:07;11.90;;;2.60;;
51866;SDS011;52862;52.504;13.480;2023-02-19T07:52:34;6.13;;;2.27;;
51866;SDS011;52862;52.504;13.480;2023-02-19T07:55:01;16.30;;;3.20;;
51866;SDS011;52862;52.504;13.480;2023-02-19T07:57:27;7.83;;;2.50;;
51866;SDS011;52862;52.504;13.480;2023-02-19T07:59:55;24.80;;;3.53;;
51866;SDS011;52862;52.504;13.480;2023-02-19T08:02:23;8.57;;;2.00;;
51866;SDS011;52862;52.504;13.480;2023-02-19T08:05:08;12.50;;;2.93;;
51866;SDS011;52862;52.504;13.480;2023-02-19T08:07:35;9.77;;;2.67;;
51866;SDS011;52862;52.504;13.480;2023-02-19T08:10:02;11.33;;;2.77;;
51866;SDS011;52862;52.504;13.480;2023-02-19T08:12:53;23.93;;;2.60;;
51866;SDS011;52862;52.504;13.480;2023-02-19T08:15:38;11.10;;;2.80;;
51866;SDS011;52862;52.504;13.480;2023-02-19T08:18:06;12.37;;;2.80;;
51866;SDS011;52862;52.504;13.480;2023-02-19T08:20:32;5.70;;;2.40;;
51866;SDS011;52862;52.504;13.480;2023-02-19T08:22:59;8.17;;;3.13;;
51866;SDS011;52862;52.504;13.480;2023-02-19T08:25:27;10.27;;;2.43;;
51866;SDS011;52862;52.504;13.480;2023-02-19T08:27:54;14.23;;;3.00;;
51866;SDS011;52862;52.504;13.480;2023-02-19T08:30:21;19.57;;;2.60;;
51866;SDS011;52862;52.504;13.480;2023-02-19T08:32:48;16.30;;;4.10;;
51866;SDS011;52862;52.504;13.480;2023-02-19T08:35:15;10.67;;;3.13;;
51866;SDS011;52862;52.504;13.480;2023-02-19T08:37:42;9.10;;;2.80;;
51866;SDS011;52862;52.504;13.480;2023-02-19T08:40:09;11.73;;;3.17;;
51866;SDS011;52862;52.504;13.480;2023-02-19T08:42:36;5.10;;;2.13;;
51866;SDS011;52862;52.504;13.480;2023-02-19T08:45:03;15.90;;;3.20;;
51866;SDS011;52862;52.504;13.480;2023-02-19T08:47:30;10.17;;;2.93;;
51866;SDS011;52862;52.504;13.480;2023-02-19T08:49:59;12.67;;;3.07;;
51866;SDS011;52862;52.504;13.480;2023-02-19T08:52:27;9.00;;;2.60;;
51866;SDS011;52862;52.504;13.480;2023-02-19T08:54:54;16.90;;;3.90;;
51866;SDS011;52862;52.504;13.480;2023-02-19T08:57:21;9.43;;;2.60;;
51866;SDS011;52862;52.504;13.480;2023-02-19T08:59:48;16.53;;;2.80;;
51866;SDS011;52862;52.504;13.480;2023-02-19T09:02:14;9.63;;;2.27;;
51866;SDS011;52862;52.504;13.480;2023-02-19T09:04:41;13.20;;;2.83;;
51866;SDS011;52862;52.504;13.480;2023-02-19T09:07:08;14.10;;;2.70;;
51866;SDS011;52862;52.504;13.480;2023-02-19T09:09:38;5.40;;;2.43;;
51866;SDS011;52862;52.504;13.480;2023-02-19T09:12:05;9.63;;;2.67;;
51866;SDS011;52862;52.504;13.480;2023-02-19T09:14:34;20.93;;;3.20;;
51866;SDS011;52862;52.504;13.480;2023-02-19T09:17:01;21.17;;;2.37;;
51866;SDS011;52862;52.504;13.480;2023-02-19T09:19:29;23.97;;;2.53;;
51866;SDS011;52862;52.504;13.480;2023-02-19T09:21:56;12.50;;;2.23;;
51866;SDS011;52862;52.504;13.480;2023-02-19T09:24:23;21.27;;;5.90;;
51866;SDS011;52862;52.504;13.480;2023-02-19T09:26:51;11.00;;;2.37;;
51866;SDS011;52862;52.504;13.480;2023-02-19T09:29:19;13.57;;;2.10;;
51866;SDS011;52862;52.504;13.480;2023-02-19T09:31:46;21.57;;;3.83;;
51866;SDS011;52862;52.504;13.480;2023-02-19T09:34:13;14.03;;;2.33;;
51866;SDS011;52862;52.504;13.480;2023-02-19T09:36:40;12.83;;;3.03;;
51866;SDS011;52862;52.504;13.480;2023-02-19T09:39:07;29.57;;;3.53;;
51866;SDS011;52862;52.504;13.480;2023-02-19T09:41:38;15.57;;;2.73;;
51866;SDS011;52862;52.504;13.480;2023-02-19T09:44:10;16.83;;;2.47;;
51866;SDS011;52862;52.504;13.480;2023-02-19T09:46:43;18.40;;;3.20;;
51866;SDS011;52862;52.504;13.480;2023-02-19T09:49:12;17.47;;;3.07;;
51866;SDS011;52862;52.504;13.480;2023-02-19T09:51:42;17.83;;;2.67;;
51866;SDS011;52862;52.504;13.480;2023-02-19T09:54:15;19.97;;;3.07;;
51866;SDS011;52862;52.504;13.480;2023-02-19T09:56:51;13.77;;;2.10;;
51866;SDS011;52862;52.504;13.480;2023-02-19T09:59:21;13.53;;;2.00;;
51866;SDS011;52862;52.504;13.480;2023-02-19T10:01:52;13.73;;;2.87;;
51866;SDS011;52862;52.504;13.480;2023-02-19T10:04:24;10.00;;;1.93;;
51866;SDS011;52862;52.504;13.480;2023-02-19T10:06:51;12.63;;;2.50;;
51866;SDS011;52862;52.504;13.480;2023-02-19T10:09:24;14.60;;;2.13;;
51866;SDS011;52862;52.504;13.480;2023-02-19T10:11:53;15.27;;;2.20;;
51866;SDS011;52862;52.504;13.480;2023-02-19T10:14:22;18.10;;;2.37;;
51866;SDS011;52862;52.504;13.480;2023-02-19T10:16:56;16.60;;;2.50;;
51866;SDS011;52862;52.504;13.480;2023-02-19T10:19:25;21.17;;;3.13;;
51866;SDS011;52862;52.504;13.480;2023-02-19T10:21:52;17.63;;;3.47;;
51866;SDS011;52862;52.504;13.480;2023-02-19T10:24:23;10.73;;;2.30;;
51866;SDS011;52862;52.504;13.480;2023-02-19T10:26:51;13.67;;;2.53;;
51866;SDS011;52862;52.504;13.480;2023-02-19T10:29:19;6.90;;;1.73;;
51866;SDS011;52862;52.504;13.480;2023-02-19T10:31:47;15.67;;;2.07;;
51866;SDS011;52862;52.504;13.480;2023-02-19T10:34:16;15.53;;;2.10;;
51866;SDS011;52862;52.504;13.480;2023-02-19T10:36:45;11.47;;;2.33;;
51866;SDS011;52862;52.504;13.480;2023-02-19T10:39:22;16.03;;;2.20;;
51866;SDS011;52862;52.504;13.480;2023-02-19T10:42:00;15.93;;;2.63;;
51866;SDS011;52862;52.504;13.480;2023-02-19T10:44:28;8.23;;;1.70;;
51866;SDS011;52862;52.504;13.480;2023-02-19T10:47:01;8.30;;;1.50;;
51866;SDS011;52862;52.504;13.480;2023-02-19T10:49:28;23.23;;;2.33;;
51866;SDS011;52862;52.504;13.480;2023-02-19T10:51:58;11.90;;;2.27;;
51866;SDS011;52862;52.504;13.480;2023-02-19T10:54:27;7.03;;;2.10;;
51866;SDS011;52862;52.504;13.480;2023-02-19T10:57:07;19.63;;;2.77;;
51866;SDS011;52862;52.504;13.480;2023-02-19T10:59:50;10.93;;;1.90;;
51866;SDS011;52862;52.504;13.480;2023-02-19T11:02:19;12.93;;;2.30;;
51866;SDS011;52862;52.504;13.480;2023-02-19T11:05:00;9.93;;;2.00;;
51866;SDS011;52862;52.504;13.480;2023-02-19T11:07:42;15.93;;;2.73;;
51866;SDS011;52862;52.504;13.480;2023-02-19T11:10:18;15.97;;;2.03;;
51866;SDS011;52862;52.504;13.480;2023-02-19T11:12:48;14.70;;;2.10;;
51866;SDS011;52862;52.504;13.480;2023-02-19T11:15:18;22.33;;;2.03;;
51866;SDS011;52862;52.504;13.480;2023-02-19T11:17:53;22.23;;;2.17;;
51866;SDS011;52862;52.504;13.480;2023-02-19T11:20:22;11.70;;;1.37;;
51866;SDS011;52862;52.504;13.480;2023-02-19T11:22:49;6.43;;;1.60;;
51866;SDS011;52862;52.504;13.480;2023-02-19T11:25:18;11.30;;;2.37;;
51866;SDS011;52862;52.504;13.480;2023-02-19T11:27:53;9.07;;;2.03;;
51866;SDS011;52862;52.504;13.480;2023-02-19T11:30:31;6.73;;;1.87;;
51866;SDS011;52862;52.504;13.480;2023-02-19T11:38:46;18.60;;;3.83;;
51866;SDS011;52862;52.504;13.480;2023-02-19T11:41:14;11.97;;;2.37;;
51866;SDS011;52862;52.504;13.480;2023-02-19T11:43:51;4.83;;;1.67;;
51866;SDS011;52862;52.504;13.480;2023-02-19T11:46:28;10.53;;;2.23;;
51866;SDS011;52862;52.504;13.480;2023-02-19T11:49:10;17.30;;;2.67;;
51866;SDS011;52862;52.504;13.480;2023-02-19T11:51:53;20.40;;;6.23;;
51866;SDS011;52862;52.504;13.480;2023-02-19T11:54:36;26.67;;;3.20;;
51866;SDS011;52862;52.504;13.480;2023-02-19T11:57:14;17.13;;;2.77;;
51866;SDS011;52862;52.504;13.480;2023-02-19T11:59:58;8.10;;;1.50;;
51866;SDS011;52862;52.504;13.480;2023-02-19T12:02:53;15.93;;;2.67;;
51866;SDS011;52862;52.504;13.480;2023-02-19T12:05:40;11.30;;;1.93;;
51866;SDS011;52862;52.504;13.480;2023-02-19T12:08:28;5.27;;;1.20;;
51866;SDS011;52862;52.504;13.480;2023-02-19T12:11:23;13.93;;;2.17;;
51866;SDS011;52862;52.504;13.480;2023-02-19T12:14:08;11.03;;;2.13;;
51866;SDS011;52862;52.504;13.480;2023-02-19T12:16:50;7.93;;;2.60;;
51866;SDS011;52862;52.504;13.480;2023-02-19T12:19:42;12.13;;;1.87;;
51866;SDS011;52862;52.504;13.480;2023-02-19T12:22:25;15.47;;;2.03;;
51866;SDS011;52862;52.504;13.480;2023-02-19T12:24:58;6.43;;;1.57;;
51866;SDS011;52862;52.504;13.480;2023-02-19T12:27:54;8.13;;;1.70;;
51866;SDS011;52862;52.504;13.480;2023-02-19T12:30:46;16.40;;;2.00;;
51866;SDS011;52862;52.504;13.480;2023-02-19T12:36:22;12.70;;;1.73;;
51866;SDS011;52862;52.504;13.480;2023-02-19T12:39:01;14.83;;;1.67;;
51866;SDS011;52862;52.504;13.480;2023-02-19T12:41:39;7.27;;;1.70;;
51866;SDS011;52862;52.504;13.480;2023-02-19T12:44:10;7.17;;;1.73;;
51866;SDS011;52862;52.504;13.480;2023-02-19T12:46:42;8.83;;;2.03;;
51866;SDS011;52862;52.504;13.480;2023-02-19T12:49:15;10.37;;;1.83;;
51866;SDS011;52862;52.504;13.480;2023-02-19T12:51:51;3.43;;;1.13;;
51866;SDS011;52862;52.504;13.480;2023-02-19T12:54:26;13.50;;;2.40;;
51866;SDS011;52862;52.504;13.480;2023-02-19T12:56:56;6.93;;;1.20;;
51866;SDS011;52862;52.504;13.480;2023-02-19T12:59:28;9.20;;;1.50;;
51866;SDS011;52862;52.504;13.480;2023-02-19T13:02:02;13.13;;;2.77;;
51866;SDS011;52862;52.504;13.480;2023-02-19T13:04:41;19.33;;;1.57;;
51866;SDS011;52862;52.504;13.480;2023-02-19T13:07:15;19.77;;;2.17;;
51866;SDS011;52862;52.504;13.480;2023-02-19T13:09:49;3.77;;;1.23;;
51866;SDS011;52862;52.504;13.480;2023-02-19T13:12:20;9.57;;;2.13;;
51866;SDS011;52862;52.504;13.480;2023-02-19T13:14:50;16.70;;;2.10;;
51866;SDS011;52862;52.504;13.480;2023-02-19T13:17:23;4.70;;;1.23;;
51866;SDS011;52862;52.504;13.480;2023-02-19T13:19:55;10.40;;;1.70;;
51866;SDS011;52862;52.504;13.480;2023-02-19T13:22:30;15.13;;;2.23;;
51866;SDS011;52862;52.504;13.480;2023-02-19T13:25:23;4.77;;;1.30;;
51866;SDS011;52862;52.504;13.480;2023-02-19T13:28:10;7.37;;;1.67;;
51866;SDS011;52862;52.504;13.480;2023-02-19T13:30:51;7.90;;;2.17;;
51866;SDS011;52862;52.504;13.480;2023-02-19T13:33:34;5.30;;;1.50;;
51866;SDS011;52862;52.504;13.480;2023-02-19T13:36:09;7.17;;;1.73;;
51866;SDS011;52862;52.504;13.480;2023-02-19T13:38:39;9.30;;;1.50;;
51866;SDS011;52862;52.504;13.480;2023-02-19T13:41:25;5.37;;;1.33;;
51866;SDS011;52862;52.504;13.480;2023-02-19T13:43:55;7.00;;;1.23;;
51866;SDS011;52862;52.504;13.480;2023-02-19T13:46:25;13.07;;;2.00;;
51866;SDS011;52862;52.504;13.480;2023-02-19T14:04:44;11.30;;;1.87;;
51866;SDS011;52862;52.504;13.480;2023-02-19T14:07:20;9.43;;;1.40;;
51866;SDS011;52862;52.504;13.480;2023-02-19T14:09:59;9.70;;;1.47;;
51866;SDS011;52862;52.504;13.480;2023-02-19T14:12:30;2.20;;;1.00;;
51866;SDS011;52862;52.504;13.480;2023-02-19T14:18:00;9.33;;;1.53;;
51866;SDS011;52862;52.504;13.480;2023-02-19T14:23:14;9.20;;;1.73;;
51866;SDS011;52862;52.504;13.480;2023-02-19T14:25:43;7.20;;;1.53;;
51866;SDS011;52862;52.504;13.480;2023-02-19T14:28:21;14.03;;;1.77;;
51866;SDS011;52862;52.504;13.480;2023-02-19T14:31:13;5.33;;;1.27;;
51866;SDS011;52862;52.504;13.480;2023-02-19T14:33:49;10.23;;;2.00;;
51866;SDS011;52862;52.504;13.480;2023-02-19T14:36:22;6.57;;;1.47;;
51866;SDS011;52862;52.504;13.480;2023-02-19T14:38:57;12.87;;;1.50;;
51866;SDS011;52862;52.504;13.480;2023-02-19T14:41:26;7.67;;;1.60;;
51866;SDS011;52862;52.504;13.480;2023-02-19T14:43:58;7.77;;;1.50;;
51866;SDS011;52862;52.504;13.480;2023-02-19T14:46:28;9.30;;;1.90;;
51866;SDS011;52862;52.504;13.480;2023-02-19T14:49:01;4.27;;;1.40;;
51866;SDS011;52862;52.504;13.480;2023-02-19T14:51:33;9.57;;;1.93;;
51866;SDS011;52862;52.504;13.480;2023-02-19T14:54:09;10.17;;;1.77;;
51866;SDS011;52862;52.504;13.480;2023-02-19T14:56:42;10.03;;;1.50;;
51866;SDS011;52862;52.504;13.480;2023-02-19T15:01:59;6.27;;;1.50;;
51866;SDS011;52862;52.504;13.480;2023-02-19T15:04:28;4.23;;;1.30;;
51866;SDS011;52862;52.504;13.480;2023-02-19T15:07:01;6.03;;;1.47;;
51866;SDS011;52862;52.504;13.480;2023-02-19T15:09:35;10.23;;;1.87;;
51866;SDS011;52862;52.504;13.480;2023-02-19T15:12:06;11.77;;;2.37;;
51866;SDS011;52862;52.504;13.480;2023-02-19T15:14:40;11.63;;;1.70;;
51866;SDS011;52862;52.504;13.480;2023-02-19T15:17:09;5.70;;;1.60;;
51866;SDS011;52862;52.504;13.480;2023-02-19T15:19:41;7.03;;;1.40;;
51866;SDS011;52862;52.504;13.480;2023-02-19T15:22:13;9.73;;;1.40;;
51866;SDS011;52862;52.504;13.480;2023-02-19T15:24:46;6.40;;;1.10;;
51866;SDS011;52862;52.504;13.480;2023-02-19T15:27:16;9.30;;;1.40;;
51866;SDS011;52862;52.504;13.480;2023-02-19T15:29:50;12.63;;;2.20;;